Time;durP1;ratioP1;P1;durP2;ratioP2;P2;SDS_P1;SDS_P2;PMS_P1;PMS_P2;Temp;Humidity;BMP_temperature;BMP_pressure;BME280_temperature;BME280_humidity;BME280_pressure;Samples;Min_cycle;Max_cycle;Signal;HPM_P1;HPM_P2
2024/03/29 00:02:01;;;;;;;3.03;0.75;;;10.30;69.70;;;;;;5069704;28;20071;-63
2024/03/29 00:04:27;;;;;;;2.55;1.00;;;10.30;69.80;;;;;;5066203;28;20039;-65
2024/03/29 00:06:52;;;;;;;1.30;0.70;;;10.30;69.80;;;;;;5067316;28;20021;-65
2024/03/29 00:09:18;;;;;;;1.75;0.70;;;10.30;69.80;;;;;;5068003;28;20024;-66
2024/03/29 00:11:43;;;;;;;1.85;0.80;;;10.30;69.90;;;;;;5066975;28;20025;-66
2024/03/29 00:14:09;;;;;;;2.38;0.60;;;10.20;70.00;;;;;;5067483;28;20056;-65
2024/03/29 00:16:34;;;;;;;0.68;0.60;;;10.20;70.10;;;;;;5068131;28;20371;-65
2024/03/29 00:19:00;;;;;;;0.50;0.50;;;10.20;70.10;;;;;;5069436;28;20028;-64
2024/03/29 00:21:25;;;;;;;1.17;0.95;;;10.20;70.30;;;;;;5067450;28;20032;-65
2024/03/29 00:23:51;;;;;;;1.23;0.75;;;10.10;70.40;;;;;;5065595;28;20028;-65
2024/03/29 00:26:16;;;;;;;1.48;0.85;;;10.10;70.60;;;;;;5068940;28;20067;-64
2024/03/29 00:28:42;;;;;;;1.67;1.00;;;10.10;70.80;;;;;;5074987;28;20021;-66
2024/03/29 00:31:08;;;;;;;1.52;0.73;;;10.10;70.80;;;;;;5068174;28;20074;-66
2024/03/29 00:33:34;;;;;;;2.33;0.73;;;10.10;70.80;;;;;;5071409;28;20008;-66
2024/03/29 00:36:00;;;;;;;1.45;0.80;;;10.00;70.80;;;;;;5069868;28;20539;-65
2024/03/29 00:38:26;;;;;;;2.60;0.77;;;10.00;70.80;;;;;;5072031;28;20115;-64
2024/03/29 00:40:51;;;;;;;1.15;0.68;;;10.00;70.80;;;;;;5073622;28;20114;-65
2024/03/29 00:43:17;;;;;;;2.25;1.10;;;10.00;70.70;;;;;;5074017;28;20025;-65
2024/03/29 00:45:42;;;;;;;2.25;1.02;;;10.00;70.60;;;;;;5070123;28;20033;-66
2024/03/29 00:48:08;;;;;;;1.85;0.93;;;10.00;70.60;;;;;;5064657;28;20028;-65
2024/03/29 00:50:34;;;;;;;1.85;0.70;;;10.00;70.50;;;;;;5065164;28;20078;-65
2024/03/29 00:53:00;;;;;;;1.88;1.02;;;10.10;70.50;;;;;;5069081;28;20056;-64
2024/03/29 00:55:25;;;;;;;1.05;0.60;;;10.10;70.40;;;;;;5068565;28;20111;-66
2024/03/29 00:57:51;;;;;;;2.58;0.80;;;10.10;70.40;;;;;;5064902;28;20399;-64
2024/03/29 01:00:17;;;;;;;1.50;0.85;;;10.10;70.30;;;;;;5069646;28;20027;-65
2024/03/29 01:02:42;;;;;;;2.10;0.80;;;10.20;70.20;;;;;;5067483;28;20024;-65
2024/03/29 01:05:08;;;;;;;3.10;0.80;;;10.20;70.10;;;;;;5066047;28;20032;-65
2024/03/29 01:07:34;;;;;;;1.45;0.60;;;10.20;70.10;;;;;;5070161;28;20074;-64
2024/03/29 01:10:00;;;;;;;2.22;0.60;;;10.20;70.10;;;;;;5070994;28;20020;-65
2024/03/29 01:12:25;;;;;;;1.02;0.80;;;10.30;70.10;;;;;;5068464;28;20032;-64
2024/03/29 01:14:51;;;;;;;1.20;0.77;;;10.20;69.90;;;;;;5068307;28;20040;-64
2024/03/29 01:17:17;;;;;;;1.08;0.80;;;10.20;69.90;;;;;;5069174;28;20051;-65
2024/03/29 01:19:43;;;;;;;1.77;0.80;;;10.30;69.70;;;;;;5067583;28;20040;-65
2024/03/29 01:22:09;;;;;;;1.40;0.70;;;10.20;69.50;;;;;;5070251;28;20443;-64
2024/03/29 01:24:35;;;;;;;1.52;0.80;;;10.20;69.60;;;;;;5065938;28;20141;-65
2024/03/29 01:27:01;;;;;;;3.40;0.80;;;10.20;69.50;;;;;;5067851;28;20100;-65
2024/03/29 01:29:27;;;;;;;2.05;0.70;;;10.20;69.60;;;;;;5067672;28;20032;-65
2024/03/29 01:31:53;;;;;;;1.77;0.80;;;10.20;70.10;;;;;;5067518;28;20103;-62
2024/03/29 01:34:18;;;;;;;2.03;0.80;;;10.20;69.60;;;;;;5065690;28;20115;-65
2024/03/29 01:36:44;;;;;;;2.50;0.77;;;10.20;69.60;;;;;;5067062;28;20036;-62
2024/03/29 01:39:13;;;;;;;0.60;0.60;;;10.20;69.70;;;;;;5066583;28;20032;-65
2024/03/29 01:41:39;;;;;;;1.83;0.70;;;10.20;69.70;;;;;;5068737;28;20028;-64
2024/03/29 01:44:05;;;;;;;0.82;0.50;;;10.20;69.80;;;;;;5065318;28;20029;-65
2024/03/29 01:46:32;;;;;;;3.00;0.70;;;10.20;69.80;;;;;;5072911;28;20051;-64
2024/03/29 01:48:58;;;;;;;0.85;0.63;;;10.20;69.90;;;;;;5069803;28;20062;-65
2024/03/29 01:51:23;;;;;;;2.30;0.68;;;10.20;69.80;;;;;;5067832;28;20029;-65
2024/03/29 01:53:51;;;;;;;1.05;0.60;;;10.20;69.80;;;;;;5068614;28;20033;-66
2024/03/29 01:56:17;;;;;;;1.30;0.65;;;10.20;69.90;;;;;;5068476;28;20070;-65
2024/03/29 01:58:44;;;;;;;1.13;0.82;;;10.10;69.90;;;;;;5069449;28;20032;-65
2024/03/29 02:01:11;;;;;;;0.85;0.60;;;10.10;70.00;;;;;;5072893;28;20612;-65
2024/03/29 02:03:37;;;;;;;0.55;0.50;;;10.10;70.00;;;;;;5067971;28;20044;-65
2024/03/29 02:06:05;;;;;;;1.45;0.50;;;10.10;70.10;;;;;;5068687;28;20483;-64
2024/03/29 02:08:30;;;;;;;0.70;0.52;;;10.00;70.20;;;;;;5070245;28;20016;-65
2024/03/29 02:10:57;;;;;;;0.65;0.52;;;10.00;70.50;;;;;;5068410;28;20042;-65
2024/03/29 02:13:23;;;;;;;0.52;0.50;;;9.90;70.60;;;;;;5068168;28;20028;-64
2024/03/29 02:15:49;;;;;;;1.45;0.63;;;9.90;70.70;;;;;;5070560;28;20033;-65
2024/03/29 02:18:14;;;;;;;0.98;0.50;;;9.90;70.90;;;;;;5069304;28;20040;-65
2024/03/29 02:20:40;;;;;;;1.08;0.65;;;9.90;71.00;;;;;;5066328;28;20051;-65
2024/03/29 02:23:19;;;;;;;1.60;0.63;;;9.90;71.00;;;;;;5070882;28;20479;-65
2024/03/29 02:25:45;;;;;;;1.02;0.70;;;9.80;71.20;;;;;;5062953;28;20127;-65
2024/03/29 02:28:11;;;;;;;0.60;0.60;;;9.80;71.40;;;;;;5068601;28;20134;-65
2024/03/29 02:30:36;;;;;;;0.50;0.50;;;9.80;71.30;;;;;;5069268;28;20032;-65
2024/03/29 02:33:02;;;;;;;0.50;0.50;;;9.80;71.30;;;;;;5068727;28;20021;-64
2024/03/29 02:35:29;;;;;;;0.60;0.50;;;9.80;71.40;;;;;;5069519;28;20102;-65
2024/03/29 02:37:54;;;;;;;0.95;0.60;;;9.80;71.30;;;;;;5075219;28;20039;-64
2024/03/29 02:40:20;;;;;;;0.52;0.50;;;9.80;71.30;;;;;;5068143;28;20032;-65
2024/03/29 02:42:49;;;;;;;1.25;0.70;;;9.80;71.40;;;;;;5071364;28;20032;-65
2024/03/29 02:45:16;;;;;;;1.25;0.60;;;9.80;71.30;;;;;;5068921;28;20073;-64
2024/03/29 02:47:42;;;;;;;1.70;0.80;;;9.90;71.30;;;;;;5076536;28;20510;-65
2024/03/29 02:50:10;;;;;;;1.60;0.70;;;9.90;71.20;;;;;;5071448;28;20025;-63
2024/03/29 02:52:36;;;;;;;1.65;0.70;;;9.90;71.10;;;;;;5071507;28;20025;-65
2024/03/29 02:55:02;;;;;;;1.52;0.68;;;9.90;70.90;;;;;;5072949;28;20521;-65
2024/03/29 02:57:27;;;;;;;1.58;0.88;;;10.00;70.70;;;;;;5072158;28;20036;-63
2024/03/29 02:59:53;;;;;;;1.10;0.80;;;10.00;70.70;;;;;;5070508;28;20035;-65
2024/03/29 03:02:18;;;;;;;1.98;0.70;;;10.10;70.50;;;;;;5071468;28;20084;-64
2024/03/29 03:04:44;;;;;;;1.70;0.70;;;10.20;70.40;;;;;;5071519;28;20037;-64
2024/03/29 03:12:37;;;;;;;2.75;0.80;;;10.20;70.50;;;;;;5074431;28;20085;-65
2024/03/29 03:15:03;;;;;;;3.20;0.73;;;10.20;70.70;;;;;;5072430;28;20107;-64
2024/03/29 03:17:31;;;;;;;1.33;0.80;;;10.10;70.60;;;;;;5071810;28;20109;-65
2024/03/29 03:19:56;;;;;;;1.02;0.70;;;10.10;70.90;;;;;;5071800;28;20035;-64
2024/03/29 03:22:22;;;;;;;2.22;1.40;;;10.10;71.00;;;;;;5071514;28;20028;-64
2024/03/29 03:24:48;;;;;;;1.23;0.60;;;10.00;71.10;;;;;;5068244;28;20039;-65
2024/03/29 03:27:13;;;;;;;1.38;0.60;;;10.00;71.10;;;;;;5071288;28;20027;-65
2024/03/29 03:29:39;;;;;;;1.98;0.75;;;10.00;71.20;;;;;;5075647;28;20029;-64
2024/03/29 03:32:05;;;;;;;2.30;0.73;;;10.00;71.30;;;;;;5076606;28;20029;-65
2024/03/29 03:34:32;;;;;;;1.20;0.70;;;10.00;71.30;;;;;;5070996;28;20028;-65
2024/03/29 03:36:58;;;;;;;1.80;0.80;;;10.00;71.30;;;;;;5075925;28;20021;-65
2024/03/29 03:39:23;;;;;;;1.05;0.60;;;10.00;71.30;;;;;;5069863;28;20020;-64
2024/03/29 03:41:50;;;;;;;0.80;0.70;;;10.10;71.40;;;;;;5069761;28;20111;-65
2024/03/29 03:44:15;;;;;;;3.03;0.80;;;10.00;71.30;;;;;;5071121;28;20416;-65
2024/03/29 03:46:41;;;;;;;1.58;0.70;;;10.10;71.40;;;;;;5069647;28;20195;-65
2024/03/29 03:49:07;;;;;;;1.20;0.75;;;10.10;71.40;;;;;;5071023;28;20024;-65
2024/03/29 03:51:32;;;;;;;2.13;0.73;;;10.10;71.40;;;;;;5069959;28;20020;-65
2024/03/29 03:53:58;;;;;;;1.65;0.75;;;10.10;71.30;;;;;;5070875;28;20495;-64
2024/03/29 03:56:23;;;;;;;2.25;0.80;;;10.20;71.30;;;;;;5070306;28;20570;-65
2024/03/29 03:58:49;;;;;;;1.98;0.70;;;10.20;71.30;;;;;;5069216;28;20107;-65
2024/03/29 04:01:14;;;;;;;1.35;0.80;;;10.20;71.60;;;;;;5067099;28;20055;-66
2024/03/29 04:03:40;;;;;;;1.38;0.70;;;10.20;71.70;;;;;;5070371;28;20027;-65
2024/03/29 04:06:06;;;;;;;3.35;0.90;;;10.20;71.90;;;;;;5068715;28;20054;-65
2024/03/29 04:08:32;;;;;;;1.65;0.80;;;10.20;72.30;;;;;;5075183;28;20050;-64
2024/03/29 04:10:58;;;;;;;2.33;0.88;;;10.10;72.60;;;;;;5074900;28;20126;-65
2024/03/29 04:13:23;;;;;;;3.78;0.73;;;10.10;72.80;;;;;;5077681;28;20102;-65
2024/03/29 04:15:49;;;;;;;0.65;0.65;;;10.10;73.50;;;;;;5069448;28;20029;-63
2024/03/29 04:18:15;;;;;;;1.25;0.70;;;10.00;73.70;;;;;;5067994;28;20040;-65
2024/03/29 04:20:40;;;;;;;3.25;0.80;;;10.00;74.10;;;;;;5069430;28;20040;-65
2024/03/29 04:23:06;;;;;;;0.93;0.70;;;9.90;74.60;;;;;;5060937;28;20102;-65
2024/03/29 04:25:32;;;;;;;1.05;0.70;;;10.00;74.80;;;;;;5071420;28;20387;-65
2024/03/29 04:27:58;;;;;;;1.10;0.70;;;9.90;75.00;;;;;;5074776;28;20021;-65
2024/03/29 04:30:24;;;;;;;0.68;0.55;;;9.90;75.20;;;;;;5078091;28;20505;-64
2024/03/29 04:32:49;;;;;;;0.80;0.60;;;9.90;75.70;;;;;;5077467;28;20048;-65
2024/03/29 04:35:15;;;;;;;0.50;0.50;;;9.80;75.80;;;;;;5067836;28;20151;-64
2024/03/29 04:37:41;;;;;;;1.80;0.77;;;9.90;75.80;;;;;;5068296;28;20036;-65
2024/03/29 04:40:07;;;;;;;1.70;0.60;;;9.90;76.10;;;;;;5079732;28;20028;-64
2024/03/29 04:42:32;;;;;;;1.20;0.60;;;9.80;76.30;;;;;;5070138;28;20724;-65
2024/03/29 04:44:58;;;;;;;2.40;0.60;;;9.90;76.20;;;;;;5067881;28;20107;-64
2024/03/29 04:47:23;;;;;;;2.10;0.57;;;9.80;77.10;;;;;;5069200;28;20039;-64
2024/03/29 04:49:49;;;;;;;0.77;0.52;;;9.80;76.90;;;;;;5076179;28;20097;-64
2024/03/29 04:52:14;;;;;;;2.63;0.70;;;9.80;77.00;;;;;;5069016;28;20047;-65
2024/03/29 04:54:40;;;;;;;1.80;0.85;;;9.80;77.50;;;;;;5070162;28;20059;-64
2024/03/29 04:57:08;;;;;;;0.70;0.60;;;9.70;77.80;;;;;;5077298;28;20024;-65
2024/03/29 04:59:34;;;;;;;0.82;0.60;;;9.70;77.80;;;;;;5076157;28;20045;-64
2024/03/29 05:02:00;;;;;;;2.35;0.60;;;9.70;77.70;;;;;;5066556;28;20070;-64
2024/03/29 05:04:26;;;;;;;2.22;0.60;;;9.80;77.80;;;;;;5071571;28;20024;-63
2024/03/29 05:06:56;;;;;;;1.70;0.50;;;9.70;77.80;;;;;;5071353;28;20032;-64
2024/03/29 05:09:23;;;;;;;0.60;0.47;;;9.70;77.90;;;;;;5069452;28;20097;-65
2024/03/29 05:11:49;;;;;;;0.40;0.40;;;9.70;78.30;;;;;;5076029;28;20050;-64
2024/03/29 05:14:19;;;;;;;1.42;0.60;;;9.70;78.20;;;;;;5069637;28;20148;-65
2024/03/29 05:16:46;;;;;;;0.60;0.50;;;9.70;78.20;;;;;;5074085;28;20482;-64
2024/03/29 05:19:12;;;;;;;0.57;0.50;;;9.70;78.20;;;;;;5067060;28;20044;-64
2024/03/29 05:21:38;;;;;;;0.85;0.50;;;9.70;78.30;;;;;;5067263;28;20255;-64
2024/03/29 05:24:04;;;;;;;0.75;0.50;;;9.60;78.70;;;;;;5074169;28;20025;-65
2024/03/29 05:26:30;;;;;;;0.50;0.50;;;9.60;78.70;;;;;;5072603;28;20037;-64
2024/03/29 05:28:57;;;;;;;0.60;0.60;;;9.60;78.70;;;;;;5072216;28;20020;-64
2024/03/29 05:31:24;;;;;;;0.80;0.50;;;9.50;78.90;;;;;;5069634;28;20111;-65
2024/03/29 05:33:49;;;;;;;0.50;0.50;;;9.50;79.20;;;;;;5070638;28;20441;-65
2024/03/29 05:36:15;;;;;;;0.85;0.60;;;9.40;79.40;;;;;;5066631;28;20112;-63
2024/03/29 05:38:40;;;;;;;0.80;0.57;;;9.40;79.40;;;;;;5072297;28;20478;-65
2024/03/29 05:41:06;;;;;;;1.33;0.80;;;9.40;79.40;;;;;;5080549;28;20127;-65
2024/03/29 05:43:32;;;;;;;0.77;0.70;;;9.40;79.60;;;;;;5070942;28;20020;-66
2024/03/29 05:46:00;;;;;;;0.70;0.50;;;9.40;79.60;;;;;;5072360;28;20475;-65
2024/03/29 05:48:25;;;;;;;1.48;0.80;;;9.40;79.60;;;;;;5071309;28;20039;-65
2024/03/29 05:50:51;;;;;;;0.80;0.60;;;9.40;79.90;;;;;;5073942;28;20570;-65
2024/03/29 05:53:17;;;;;;;0.98;0.80;;;9.40;80.10;;;;;;5073400;28;20051;-63
2024/03/29 05:55:42;;;;;;;1.75;0.60;;;9.30;80.50;;;;;;5067688;28;20048;-64
2024/03/29 05:58:08;;;;;;;1.38;0.70;;;9.40;80.50;;;;;;5070016;28;20056;-64
2024/03/29 06:00:34;;;;;;;1.00;0.60;;;9.40;80.40;;;;;;5068507;28;20032;-62
2024/03/29 06:03:04;;;;;;;0.52;0.52;;;9.40;80.70;;;;;;5067640;28;20020;-65
2024/03/29 06:05:30;;;;;;;1.00;0.70;;;9.40;80.60;;;;;;5074093;28;20551;-65
2024/03/29 06:07:55;;;;;;;1.17;0.70;;;9.40;80.50;;;;;;5073103;28;20092;-64
2024/03/29 06:10:21;;;;;;;0.82;0.43;;;9.40;80.60;;;;;;5070859;28;20029;-65
2024/03/29 06:12:46;;;;;;;0.93;0.63;;;9.50;80.70;;;;;;5071865;28;20012;-65
2024/03/29 06:17:57;;;;;;;0.70;0.70;;;9.50;80.60;;;;;;5073150;28;20062;-64
2024/03/29 06:20:23;;;;;;;0.60;0.60;;;9.50;80.80;;;;;;5075215;28;20089;-64
2024/03/29 06:22:48;;;;;;;1.38;0.65;;;9.50;81.10;;;;;;5074883;28;20451;-65
2024/03/29 06:25:15;;;;;;;1.02;0.63;;;9.40;81.10;;;;;;5073685;28;20054;-65
2024/03/29 06:27:43;;;;;;;2.60;0.70;;;9.50;81.20;;;;;;5070986;28;20020;-64
2024/03/29 06:30:09;;;;;;;0.80;0.70;;;9.40;81.30;;;;;;5070456;28;20025;-65
2024/03/29 06:32:35;;;;;;;0.65;0.60;;;9.50;81.30;;;;;;5075152;28;20021;-64
2024/03/29 06:35:01;;;;;;;0.77;0.70;;;9.50;81.50;;;;;;5077866;28;20493;-64
2024/03/29 06:37:28;;;;;;;0.50;0.50;;;9.50;81.40;;;;;;5071641;28;20032;-65
2024/03/29 06:39:53;;;;;;;0.65;0.60;;;9.50;81.40;;;;;;5081542;28;20466;-65
2024/03/29 06:42:19;;;;;;;0.57;0.40;;;9.40;81.50;;;;;;5069708;28;20094;-65
2024/03/29 06:44:45;;;;;;;0.50;0.50;;;9.40;81.70;;;;;;5079196;28;20062;-65
2024/03/29 06:47:11;;;;;;;0.75;0.50;;;9.40;82.00;;;;;;5074498;28;20028;-65
2024/03/29 06:49:36;;;;;;;0.60;0.50;;;9.30;82.20;;;;;;5069384;28;20483;-64
2024/03/29 06:52:02;;;;;;;0.75;0.50;;;9.40;82.40;;;;;;5071402;28;20048;-65
2024/03/29 06:54:28;;;;;;;0.50;0.50;;;9.40;82.30;;;;;;5073209;28;20059;-65
2024/03/29 06:56:54;;;;;;;0.50;0.50;;;9.30;82.30;;;;;;5075134;28;20121;-65
2024/03/29 06:59:20;;;;;;;0.60;0.60;;;9.30;82.40;;;;;;5072824;28;20036;-65
2024/03/29 07:01:52;;;;;;;0.68;0.63;;;9.30;82.50;;;;;;5073917;28;20025;-65
2024/03/29 07:04:24;;;;;;;0.60;0.60;;;9.30;82.80;;;;;;5070014;28;20475;-64
2024/03/29 07:06:51;;;;;;;0.60;0.60;;;9.30;83.20;;;;;;5078775;28;20100;-65
2024/03/29 07:09:18;;;;;;;0.70;0.55;;;9.20;82.90;;;;;;5079723;28;20107;-65
2024/03/29 07:11:48;;;;;;;0.63;0.60;;;9.30;83.10;;;;;;5071328;28;20056;-64
2024/03/29 07:14:18;;;;;;;0.85;0.60;;;9.30;83.00;;;;;;5072546;28;20024;-65
2024/03/29 07:16:44;;;;;;;0.60;0.60;;;9.30;83.50;;;;;;5080721;28;20028;-64
2024/03/29 07:19:15;;;;;;;1.30;0.60;;;9.20;83.30;;;;;;5076837;28;20040;-65
2024/03/29 07:21:44;;;;;;;0.87;0.73;;;9.30;83.50;;;;;;5073411;28;20039;-65
2024/03/29 07:24:10;;;;;;;0.60;0.60;;;9.20;83.60;;;;;;5071668;28;20017;-65
2024/03/29 07:26:35;;;;;;;0.95;0.95;;;9.30;83.60;;;;;;5072983;28;20170;-66
2024/03/29 07:29:01;;;;;;;1.65;0.90;;;9.20;84.50;;;;;;5082439;28;20485;-64
2024/03/29 07:31:27;;;;;;;0.70;0.70;;;9.30;84.10;;;;;;5072903;28;20024;-65
2024/03/29 07:33:53;;;;;;;0.98;0.60;;;9.30;84.00;;;;;;5071213;28;20043;-65
2024/03/29 07:36:18;;;;;;;2.08;0.70;;;9.40;83.90;;;;;;5071209;28;20063;-65
2024/03/29 07:38:44;;;;;;;1.05;0.80;;;9.50;83.80;;;;;;5072507;28;20482;-65
2024/03/29 07:41:10;;;;;;;1.83;0.93;;;9.40;83.70;;;;;;5078936;28;20103;-65
2024/03/29 07:43:40;;;;;;;0.70;0.70;;;9.50;84.20;;;;;;5073237;28;20099;-65
2024/03/29 07:46:08;;;;;;;0.60;0.60;;;9.40;84.60;;;;;;5076060;28;20028;-65
2024/03/29 07:48:34;;;;;;;1.65;0.88;;;9.40;83.90;;;;;;5068165;28;20255;-65
2024/03/29 07:51:00;;;;;;;1.08;0.68;;;9.50;84.10;;;;;;5070630;28;20055;-65
2024/03/29 07:53:25;;;;;;;0.60;0.60;;;9.60;84.10;;;;;;5077409;28;20027;-65
2024/03/29 07:55:51;;;;;;;0.70;0.60;;;9.60;84.20;;;;;;5070013;28;20119;-64
2024/03/29 07:58:16;;;;;;;0.60;0.60;;;9.60;84.00;;;;;;5071386;28;20032;-65
2024/03/29 08:00:42;;;;;;;0.70;0.70;;;9.60;84.00;;;;;;5068173;28;20021;-63
2024/03/29 08:03:08;;;;;;;0.55;0.55;;;9.60;84.20;;;;;;5078965;28;20390;-65
2024/03/29 08:05:34;;;;;;;1.15;0.55;;;9.60;84.20;;;;;;5080217;28;20035;-65
2024/03/29 08:08:00;;;;;;;0.80;0.70;;;9.60;84.10;;;;;;5071368;28;20059;-64
2024/03/29 08:10:25;;;;;;;0.60;0.60;;;9.60;84.10;;;;;;5079163;28;20479;-63
2024/03/29 08:12:51;;;;;;;1.35;0.73;;;9.60;84.50;;;;;;5081671;28;20035;-66
2024/03/29 08:15:18;;;;;;;1.00;0.70;;;9.60;84.40;;;;;;5078749;28;20029;-64
2024/03/29 08:17:44;;;;;;;0.70;0.70;;;9.60;84.50;;;;;;5077674;28;21127;-66
2024/03/29 08:20:10;;;;;;;0.68;0.68;;;9.60;84.70;;;;;;5076437;28;20020;-65
2024/03/29 08:22:36;;;;;;;1.65;0.70;;;9.70;84.60;;;;;;5081697;28;20024;-65
2024/03/29 08:25:01;;;;;;;0.63;0.57;;;9.70;84.40;;;;;;5078767;28;20040;-65
2024/03/29 08:27:27;;;;;;;0.60;0.60;;;9.70;84.40;;;;;;5080957;28;20371;-65
2024/03/29 08:29:53;;;;;;;0.85;0.60;;;9.70;84.50;;;;;;5074339;28;20032;-65
2024/03/29 08:32:18;;;;;;;0.50;0.50;;;9.70;84.60;;;;;;5073105;28;20050;-65
2024/03/29 08:34:44;;;;;;;0.60;0.52;;;9.70;84.50;;;;;;5069876;28;20114;-64
2024/03/29 08:37:09;;;;;;;0.80;0.70;;;9.80;84.50;;;;;;5064985;28;20340;-64
2024/03/29 08:39:37;;;;;;;0.52;0.52;;;9.80;84.60;;;;;;5069115;28;20566;-65
2024/03/29 08:42:06;;;;;;;1.38;0.60;;;9.80;84.50;;;;;;5073482;28;20020;-65
2024/03/29 08:44:32;;;;;;;0.57;0.57;;;9.90;84.50;;;;;;5073268;28;20028;-62
2024/03/29 08:47:01;;;;;;;0.60;0.43;;;9.90;84.50;;;;;;5065539;28;23574;-66
2024/03/29 08:49:30;;;;;;;0.50;0.50;;;9.90;84.50;;;;;;5070145;28;20017;-64
2024/03/29 08:52:00;;;;;;;0.60;0.60;;;9.90;84.60;;;;;;5069828;28;20029;-65
2024/03/29 08:54:27;;;;;;;0.73;0.70;;;10.00;84.60;;;;;;5073425;28;20029;-65
2024/03/29 08:56:53;;;;;;;1.95;0.60;;;10.00;84.80;;;;;;5073271;28;20106;-65
2024/03/29 08:59:18;;;;;;;0.88;0.68;;;10.10;84.70;;;;;;5072061;28;20481;-65
2024/03/29 09:01:46;;;;;;;1.15;0.68;;;10.20;84.60;;;;;;5071606;28;20479;-65
2024/03/29 09:04:11;;;;;;;1.23;0.77;;;10.20;84.30;;;;;;5068042;28;20399;-66
2024/03/29 09:06:40;;;;;;;0.70;0.60;;;10.30;84.30;;;;;;5075871;28;20035;-65
2024/03/29 09:09:09;;;;;;;0.77;0.75;;;10.30;84.60;;;;;;5078114;28;20024;-66
2024/03/29 09:11:35;;;;;;;1.05;0.60;;;10.20;84.50;;;;;;5073548;28;20066;-65
2024/03/29 09:14:02;;;;;;;1.38;0.82;;;10.30;84.60;;;;;;5070363;28;20484;-64
2024/03/29 09:16:30;;;;;;;0.65;0.65;;;10.30;84.60;;;;;;5077689;28;20024;-65
2024/03/29 09:18:55;;;;;;;0.70;0.70;;;10.40;84.60;;;;;;5071315;28;20029;-66
2024/03/29 09:21:21;;;;;;;0.77;0.70;;;10.40;84.60;;;;;;5067725;28;20047;-64
2024/03/29 09:23:48;;;;;;;0.50;0.50;;;10.50;84.40;;;;;;5079525;28;20079;-64
2024/03/29 09:26:14;;;;;;;0.65;0.65;;;10.70;84.30;;;;;;5081529;28;20329;-66
2024/03/29 09:28:40;;;;;;;0.68;0.60;;;10.80;84.00;;;;;;5081938;28;20044;-64
2024/03/29 09:31:06;;;;;;;0.73;0.57;;;10.90;83.90;;;;;;5066872;28;20032;-65
2024/03/29 09:33:31;;;;;;;0.60;0.60;;;11.00;83.90;;;;;;5074948;28;20020;-65
2024/03/29 09:35:58;;;;;;;0.52;0.50;;;11.00;83.90;;;;;;5085824;28;20023;-66
2024/03/29 09:38:25;;;;;;;0.73;0.60;;;11.10;83.70;;;;;;5072526;28;20436;-66
2024/03/29 09:41:03;;;;;;;1.25;0.70;;;11.10;83.70;;;;;;5070761;28;20020;-66
2024/03/29 09:43:29;;;;;;;1.10;0.80;;;11.20;83.60;;;;;;5082143;28;20094;-65
2024/03/29 09:45:56;;;;;;;1.52;0.77;;;11.40;83.70;;;;;;5074265;28;20085;-65
2024/03/29 09:48:22;;;;;;;1.17;0.90;;;11.40;83.60;;;;;;5070534;28;20040;-63
2024/03/29 09:50:50;;;;;;;0.93;0.80;;;11.50;83.70;;;;;;5070046;28;20024;-65
2024/03/29 09:53:18;;;;;;;1.50;1.20;;;11.50;83.40;;;;;;5074541;28;20100;-64
2024/03/29 09:55:44;;;;;;;1.48;1.02;;;11.60;83.70;;;;;;5064940;28;20024;-64
2024/03/29 09:58:09;;;;;;;1.40;0.90;;;11.70;83.50;;;;;;5073375;28;20043;-64
2024/03/29 10:00:35;;;;;;;2.90;1.00;;;11.80;83.60;;;;;;5068156;28;20028;-65
2024/03/29 10:03:02;;;;;;;2.28;1.10;;;11.80;83.40;;;;;;5071104;28;20024;-65
2024/03/29 10:05:29;;;;;;;1.35;1.08;;;11.80;83.30;;;;;;5064434;28;20483;-64
2024/03/29 10:07:54;;;;;;;2.45;1.20;;;12.00;83.30;;;;;;5070444;28;20020;-65
2024/03/29 10:10:20;;;;;;;1.65;1.00;;;12.00;83.00;;;;;;5065233;28;20031;-63
2024/03/29 10:12:45;;;;;;;0.75;0.75;;;12.00;83.40;;;;;;5061936;28;20035;-65
2024/03/29 10:15:14;;;;;;;1.92;1.08;;;12.20;82.60;;;;;;5060970;28;20044;-63
2024/03/29 10:17:48;;;;;;;3.80;1.15;;;12.10;82.40;;;;;;5061360;28;20040;-65
2024/03/29 10:20:17;;;;;;;1.10;0.90;;;12.20;83.00;;;;;;5062179;28;20029;-65
2024/03/29 10:22:43;;;;;;;0.68;0.68;;;12.30;82.30;;;;;;5075578;28;20033;-64
2024/03/29 10:25:10;;;;;;;1.27;1.00;;;12.40;82.20;;;;;;5064975;28;20085;-64
2024/03/29 10:27:35;;;;;;;2.28;1.30;;;12.40;81.90;;;;;;5067547;28;20540;-65
2024/03/29 10:30:02;;;;;;;1.77;1.00;;;12.40;81.80;;;;;;5065462;28;20020;-63
2024/03/29 10:32:27;;;;;;;0.95;0.85;;;12.40;81.80;;;;;;5068716;28;20426;-64
2024/03/29 10:34:53;;;;;;;1.83;1.02;;;12.50;81.80;;;;;;5068795;28;20040;-63
2024/03/29 10:37:26;;;;;;;2.75;1.35;;;12.60;81.70;;;;;;5068561;28;20059;-65
2024/03/29 10:39:52;;;;;;;1.65;1.00;;;12.60;81.50;;;;;;5064516;28;20051;-64
2024/03/29 10:42:20;;;;;;;1.00;0.77;;;12.70;81.30;;;;;;5067653;28;20051;-64
2024/03/29 10:44:48;;;;;;;2.03;1.05;;;12.80;81.30;;;;;;5073234;28;20521;-63
2024/03/29 10:47:18;;;;;;;1.50;0.93;;;12.90;81.70;;;;;;5064349;28;20451;-65
2024/03/29 10:49:46;;;;;;;1.42;0.90;;;12.90;80.80;;;;;;5069062;28;20016;-64
2024/03/29 10:52:16;;;;;;;0.90;0.90;;;13.00;80.70;;;;;;5067620;28;20052;-64
2024/03/29 10:54:44;;;;;;;1.63;1.10;;;13.10;80.60;;;;;;5068064;28;20451;-64
2024/03/29 10:57:17;;;;;;;2.33;1.20;;;13.10;80.30;;;;;;5069828;28;20550;-66
2024/03/29 11:00:11;;;;;;;1.83;1.17;;;13.10;80.10;;;;;;5066340;28;20024;-64
2024/03/29 11:03:05;;;;;;;1.75;1.02;;;13.10;80.20;;;;;;5060515;28;20024;-63
2024/03/29 11:05:33;;;;;;;1.20;0.90;;;13.20;80.00;;;;;;5063900;28;20078;-65
2024/03/29 11:08:01;;;;;;;2.08;1.20;;;13.30;79.90;;;;;;5064981;28;20062;-65
2024/03/29 11:10:45;;;;;;;1.60;1.17;;;13.40;79.80;;;;;;5065446;28;20089;-66
2024/03/29 11:13:39;;;;;;;1.63;1.20;;;13.50;79.60;;;;;;5070212;28;20566;-64
2024/03/29 11:16:05;;;;;;;2.30;1.00;;;13.50;79.20;;;;;;5074796;28;20052;-65
2024/03/29 11:18:31;;;;;;;1.80;0.82;;;13.50;79.10;;;;;;5068011;28;20498;-65
2024/03/29 11:20:58;;;;;;;1.13;0.80;;;13.60;79.20;;;;;;5069538;28;20086;-65
2024/03/29 11:23:27;;;;;;;1.25;1.00;;;13.70;79.70;;;;;;5070801;28;20029;-65
2024/03/29 11:25:54;;;;;;;1.00;0.90;;;13.90;79.10;;;;;;5066665;28;20032;-64
2024/03/29 11:28:29;;;;;;;1.50;1.20;;;14.10;78.70;;;;;;5071155;28;20017;-65
2024/03/29 11:31:00;;;;;;;2.08;1.20;;;14.10;78.10;;;;;;5065426;28;20035;-62
2024/03/29 11:33:25;;;;;;;1.52;1.10;;;14.10;77.70;;;;;;5069361;28;20107;-65
2024/03/29 11:35:51;;;;;;;1.30;1.20;;;14.10;77.20;;;;;;5067228;28;20614;-65
2024/03/29 11:38:19;;;;;;;1.98;1.08;;;14.10;77.20;;;;;;5067097;28;20033;-64
2024/03/29 11:41:00;;;;;;;1.73;1.13;;;13.90;77.40;;;;;;5069663;28;20028;-63
2024/03/29 11:43:28;;;;;;;2.78;1.13;;;13.90;77.00;;;;;;5069992;28;20029;-65
2024/03/29 11:45:55;;;;;;;0.65;0.63;;;13.90;76.90;;;;;;5068477;28;20028;-63
2024/03/29 11:48:25;;;;;;;0.82;0.73;;;14.00;77.20;;;;;;5068720;28;20399;-65
2024/03/29 11:50:52;;;;;;;1.00;0.73;;;14.20;77.10;;;;;;5066943;28;20039;-65
2024/03/29 11:53:17;;;;;;;1.10;0.70;;;14.30;76.90;;;;;;5074793;28;20023;-65
2024/03/29 11:55:43;;;;;;;2.35;0.95;;;14.40;76.80;;;;;;5063859;28;20032;-62
2024/03/29 11:58:08;;;;;;;1.77;1.20;;;14.40;76.40;;;;;;5069537;28;20020;-65
2024/03/29 12:00:34;;;;;;;1.80;0.98;;;14.50;76.00;;;;;;5069842;28;20028;-64
2024/03/29 12:03:00;;;;;;;0.68;0.68;;;14.40;75.70;;;;;;5070086;28;20399;-65
2024/03/29 12:05:26;;;;;;;0.70;0.60;;;14.50;75.90;;;;;;5067235;28;20112;-64
2024/03/29 12:07:51;;;;;;;0.77;0.60;;;14.60;76.00;;;;;;5065662;28;20037;-65
2024/03/29 12:10:17;;;;;;;0.77;0.60;;;14.70;76.00;;;;;;5066881;28;20070;-66
2024/03/29 12:12:44;;;;;;;0.65;0.65;;;14.80;75.90;;;;;;5067036;28;20032;-65
2024/03/29 12:15:09;;;;;;;1.00;0.73;;;14.90;75.60;;;;;;5068820;28;21533;-66
2024/03/29 12:17:38;;;;;;;1.15;0.55;;;15.00;75.30;;;;;;5071560;28;20052;-63
2024/03/29 12:20:10;;;;;;;0.50;0.50;;;15.10;75.10;;;;;;5069413;28;20064;-65
2024/03/29 12:22:36;;;;;;;1.50;1.10;;;15.20;75.00;;;;;;5064919;28;20029;-65
2024/03/29 12:25:02;;;;;;;0.80;0.77;;;15.20;73.80;;;;;;5067606;28;20082;-66
2024/03/29 12:27:29;;;;;;;1.25;1.00;;;15.30;73.70;;;;;;5069452;28;20047;-66
2024/03/29 12:29:55;;;;;;;2.65;1.00;;;15.40;72.90;;;;;;5070838;28;20035;-65
2024/03/29 12:32:20;;;;;;;1.35;0.80;;;15.50;72.70;;;;;;5070948;28;20038;-63
2024/03/29 12:34:46;;;;;;;1.50;0.70;;;15.50;72.10;;;;;;5065368;28;20036;-65
2024/03/29 12:37:12;;;;;;;2.17;0.73;;;15.60;72.30;;;;;;5071764;28;20108;-65
2024/03/29 12:39:42;;;;;;;0.60;0.60;;;15.70;71.30;;;;;;5071375;28;20123;-66
2024/03/29 12:42:07;;;;;;;0.63;0.55;;;15.90;71.40;;;;;;5072373;28;20024;-66
2024/03/29 12:44:33;;;;;;;0.85;0.65;;;15.80;70.30;;;;;;5066807;28;20021;-65
2024/03/29 12:47:00;;;;;;;1.98;0.82;;;15.90;69.50;;;;;;5067777;28;20039;-64
2024/03/29 12:49:26;;;;;;;0.57;0.57;;;15.70;68.80;;;;;;5070456;28;20024;-64
2024/03/29 12:51:51;;;;;;;1.15;0.65;;;15.80;69.40;;;;;;5071605;28;20034;-64
2024/03/29 12:54:18;;;;;;;0.88;0.50;;;15.90;69.50;;;;;;5068482;28;20576;-64
2024/03/29 12:56:44;;;;;;;1.73;0.70;;;15.90;69.80;;;;;;5068996;28;20020;-65